Impacts TAF Board INFO
FOR SITUATIONAL AWARENESS. NOT TO BE USED FOR FLIGHT PLANNING PURPOSES.
IDs:

KDFW - Dallas-Ft Worth Intl, TX, US

Issued at 0530 UTC 19 Nov 2017
Updated at 0651 UTC 19 Nov 2017
Potential Impact None Slight Moderate High
Time<<20/07Z 20/08Z 20/09Z 20/10Z 20/11Z 20/12Z 20/13Z 20/14Z 20/15Z 20/16Z 20/17Z 20/18Z 20/19Z
Type PRVL PRVL PRVL PRVL PRVL
VIS >6 >6 >6 >6 >6
CIG -- -- -- -- --
Cover FEW FEW FEW FEW FEW
FltCat VFR VFR VFR VFR VFR
WX -- -- -- -- --
WDir 180 180 180 180 180
WSpd 6 6 6 6 6
WGst -- -- -- -- --

Raw TAF
KDFW 190530Z 1906/2012 33006KT P6SM SKC
  FM200100 18006KT P6SM FEW250


METAR Board
Radar Display
Forecast Discussion

FOR SITUATIONAL AWARENESS. NOT TO BE USED FOR FLIGHT PLANNING PURPOSES.